Time;durP1;ratioP1;P1;durP2;ratioP2;P2;SDS_P1;SDS_P2;PMS_P1;PMS_P2;Temp;Humidity;BMP_temperature;BMP_pressure;BME280_temperature;BME280_humidity;BME280_pressure;Samples;Min_cycle;Max_cycle;Signal;HPM_P1;HPM_P2
2022/03/27 00:00:29;;;;;;;9.30;5.90;;;7.10;99.90;;;;;;5035386;28;20033;-84
2022/03/27 00:02:55;;;;;;;6.93;5.57;;;7.10;99.90;;;;;;5051505;28;20037;-83
2022/03/27 00:05:20;;;;;;;5.90;5.20;;;7.10;99.90;;;;;;5055700;28;20072;-83
2022/03/27 00:07:46;;;;;;;7.07;5.40;;;7.10;99.90;;;;;;5073192;28;20581;-84
2022/03/27 00:10:11;;;;;;;6.45;5.40;;;7.20;99.90;;;;;;5072576;28;20044;-84
2022/03/27 00:12:38;;;;;;;7.93;6.22;;;7.20;99.90;;;;;;5072981;28;20037;-84
2022/03/27 00:15:04;;;;;;;8.90;5.78;;;7.30;99.90;;;;;;5063034;28;20091;-83
2022/03/27 00:17:32;;;;;;;8.07;5.88;;;7.30;99.90;;;;;;5056181;28;20146;-84
2022/03/27 00:20:02;;;;;;;7.40;5.53;;;7.40;99.90;;;;;;5056536;28;20398;-84
2022/03/27 00:22:28;;;;;;;8.73;5.85;;;7.40;99.90;;;;;;5056812;28;20068;-83
2022/03/27 00:24:55;;;;;;;7.60;5.78;;;7.30;99.90;;;;;;5040473;28;20084;-83
2022/03/27 00:27:20;;;;;;;6.75;5.90;;;7.20;99.90;;;;;;5040329;28;20037;-84
2022/03/27 00:29:46;;;;;;;7.80;6.55;;;7.20;99.90;;;;;;5036573;28;20481;-82
2022/03/27 00:32:12;;;;;;;6.93;5.70;;;7.20;99.90;;;;;;5038017;28;20041;-83
2022/03/27 00:34:38;;;;;;;6.53;5.82;;;7.20;99.90;;;;;;5036821;28;20110;-83
2022/03/27 00:37:04;;;;;;;8.00;6.05;;;7.20;99.90;;;;;;5036673;28;20634;-84
2022/03/27 00:39:29;;;;;;;6.80;5.57;;;7.20;99.90;;;;;;5036794;28;20038;-84
2022/03/27 00:41:55;;;;;;;6.95;5.78;;;7.10;99.90;;;;;;5021348;28;20045;-83
2022/03/27 00:44:21;;;;;;;10.57;6.57;;;7.20;99.90;;;;;;5060237;28;20458;-83
2022/03/27 00:46:46;;;;;;;8.45;6.05;;;7.20;99.90;;;;;;5059725;28;20093;-84
2022/03/27 00:49:12;;;;;;;7.55;5.93;;;7.20;99.90;;;;;;5057665;28;20094;-83
2022/03/27 00:51:38;;;;;;;7.05;6.03;;;7.20;99.90;;;;;;5019430;28;20057;-83
2022/03/27 00:54:06;;;;;;;10.30;6.53;;;7.20;99.90;;;;;;5045164;28;20061;-84
2022/03/27 00:56:32;;;;;;;9.68;6.15;;;7.30;99.90;;;;;;5049438;28;20384;-83
2022/03/27 00:58:58;;;;;;;9.52;6.05;;;7.40;99.90;;;;;;5036485;28;20459;-84
2022/03/27 01:01:39;;;;;;;9.20;6.18;;;7.40;99.90;;;;;;5037613;28;20440;-83
2022/03/27 01:04:06;;;;;;;7.95;6.03;;;7.40;99.90;;;;;;5052236;28;20044;-83
2022/03/27 01:06:43;;;;;;;10.57;6.63;;;7.40;99.90;;;;;;5057027;28;20041;-84
2022/03/27 01:11:55;;;;;;;12.60;6.63;;;7.40;99.90;;;;;;5036065;28;20077;-84
2022/03/27 01:14:32;;;;;;;8.10;6.32;;;7.40;99.90;;;;;;5036001;28;20069;-84
2022/03/27 01:17:09;;;;;;;8.80;6.20;;;7.40;99.90;;;;;;5037191;28;20768;-84
2022/03/27 01:19:47;;;;;;;10.25;6.30;;;7.30;99.90;;;;;;5047378;28;20045;-83
2022/03/27 01:22:13;;;;;;;12.10;6.88;;;7.30;99.90;;;;;;5054979;28;20545;-84
2022/03/27 01:24:39;;;;;;;9.88;6.32;;;7.20;99.90;;;;;;5056093;28;20037;-83
2022/03/27 01:27:06;;;;;;;11.23;7.18;;;7.20;99.90;;;;;;5048173;28;20048;-85
2022/03/27 01:29:32;;;;;;;10.25;6.93;;;7.20;99.90;;;;;;5035115;28;20088;-84
2022/03/27 01:31:58;;;;;;;9.55;6.57;;;7.10;99.90;;;;;;5048571;28;20044;-84
2022/03/27 01:34:24;;;;;;;9.05;6.65;;;7.10;99.90;;;;;;5024897;28;20042;-84
2022/03/27 01:36:49;;;;;;;13.20;6.93;;;7.00;99.90;;;;;;5055346;28;20044;-84
2022/03/27 01:39:16;;;;;;;11.52;6.72;;;6.90;99.90;;;;;;5054162;28;20398;-83
2022/03/27 01:41:43;;;;;;;7.88;6.43;;;6.80;99.90;;;;;;5037591;28;20029;-83
2022/03/27 01:44:12;;;;;;;11.15;6.80;;;6.70;99.90;;;;;;5044473;28;20455;-83
2022/03/27 01:46:40;;;;;;;10.98;6.60;;;6.60;99.90;;;;;;5072125;28;20462;-84
2022/03/27 01:49:09;;;;;;;11.05;7.00;;;6.60;99.90;;;;;;5054845;28;20470;-83
2022/03/27 01:51:36;;;;;;;9.27;7.00;;;6.50;99.90;;;;;;5056716;28;20115;-82
2022/03/27 01:54:03;;;;;;;8.82;7.05;;;6.50;99.90;;;;;;5054450;28;20082;-83
2022/03/27 01:56:29;;;;;;;13.35;7.00;;;6.40;99.90;;;;;;5036326;28;20040;-83
2022/03/27 01:58:54;;;;;;;9.45;6.03;;;6.40;99.90;;;;;;5055307;28;20047;-84
2022/03/27 02:01:20;;;;;;;11.85;7.30;;;6.40;99.90;;;;;;5055376;28;20099;-83
2022/03/27 02:03:50;;;;;;;9.32;6.50;;;6.40;99.90;;;;;;5071902;28;20037;-85
2022/03/27 02:06:16;;;;;;;12.32;6.95;;;6.40;99.90;;;;;;5055320;28;20052;-84
2022/03/27 02:08:43;;;;;;;10.00;6.93;;;6.50;99.90;;;;;;5054910;28;20383;-83
2022/03/27 02:11:09;;;;;;;11.20;7.47;;;6.50;99.90;;;;;;5045191;28;20060;-82
2022/03/27 02:13:35;;;;;;;10.65;7.60;;;6.50;99.90;;;;;;5035919;28;20037;-85
2022/03/27 02:16:02;;;;;;;10.38;7.88;;;6.50;99.90;;;;;;5035437;28;20099;-84
2022/03/27 02:18:32;;;;;;;8.43;7.43;;;6.50;99.90;;;;;;5035307;28;20045;-84
2022/03/27 02:21:00;;;;;;;13.00;7.50;;;6.60;99.90;;;;;;5035706;28;20041;-83
2022/03/27 02:23:26;;;;;;;10.20;7.20;;;6.60;99.90;;;;;;5039209;28;20046;-84
2022/03/27 02:25:52;;;;;;;11.90;8.43;;;6.70;99.90;;;;;;5036065;28;20043;-84
2022/03/27 02:28:18;;;;;;;10.80;7.68;;;6.70;99.90;;;;;;5035275;28;20412;-84
2022/03/27 02:30:44;;;;;;;10.23;7.55;;;6.70;99.90;;;;;;5039473;28;20040;-83
2022/03/27 02:33:10;;;;;;;13.27;8.32;;;6.70;99.90;;;;;;5054837;28;20100;-84
2022/03/27 02:35:36;;;;;;;13.75;8.00;;;6.80;99.90;;;;;;5055716;28;20489;-84
2022/03/27 02:38:05;;;;;;;10.70;7.50;;;6.80;99.90;;;;;;5056304;28;20053;-85
2022/03/27 02:40:32;;;;;;;13.32;8.07;;;6.90;99.90;;;;;;5029847;28;20824;-84
2022/03/27 02:42:59;;;;;;;14.32;8.30;;;6.90;99.90;;;;;;5035792;28;20072;-84
2022/03/27 02:45:26;;;;;;;13.15;7.93;;;6.80;99.90;;;;;;5034520;28;20057;-83
2022/03/27 02:47:53;;;;;;;12.23;7.60;;;6.80;99.90;;;;;;5034753;28;20042;-84
2022/03/27 02:50:19;;;;;;;13.60;8.18;;;6.80;99.90;;;;;;5034740;28;20041;-84
2022/03/27 02:52:45;;;;;;;15.43;8.43;;;6.90;99.90;;;;;;5049844;28;20049;-84
2022/03/27 02:55:11;;;;;;;12.55;8.35;;;6.90;99.90;;;;;;5055150;28;20504;-84
2022/03/27 02:57:37;;;;;;;15.55;8.52;;;6.90;99.90;;;;;;5053856;28;20721;-84
2022/03/27 03:00:05;;;;;;;16.58;7.95;;;6.90;99.90;;;;;;5053831;28;20068;-84
2022/03/27 03:02:31;;;;;;;23.55;8.80;;;6.90;99.90;;;;;;5055910;28;20056;-84
2022/03/27 03:04:56;;;;;;;15.02;8.27;;;6.80;99.90;;;;;;5050023;28;20030;-83
2022/03/27 03:07:22;;;;;;;15.45;8.45;;;6.90;99.90;;;;;;5033964;28;20506;-84
2022/03/27 03:09:48;;;;;;;16.67;8.77;;;6.80;99.90;;;;;;5033769;28;20068;-85
2022/03/27 03:12:14;;;;;;;16.00;8.00;;;6.80;99.90;;;;;;5036039;28;20121;-84
2022/03/27 03:14:39;;;;;;;16.00;8.15;;;6.70;99.90;;;;;;5033509;28;20080;-84
2022/03/27 03:17:07;;;;;;;18.38;9.02;;;6.70;99.90;;;;;;5017932;28;20544;-84
2022/03/27 03:19:33;;;;;;;18.67;8.18;;;6.80;99.90;;;;;;5034158;28;20029;-84
2022/03/27 03:21:58;;;;;;;19.17;7.90;;;6.80;99.90;;;;;;5034823;28;20494;-82
2022/03/27 03:24:25;;;;;;;16.38;8.18;;;6.70;99.90;;;;;;5033907;28;20413;-83
2022/03/27 03:26:52;;;;;;;17.45;8.50;;;6.80;99.90;;;;;;5043227;28;20033;-85
2022/03/27 03:29:18;;;;;;;14.23;9.02;;;6.80;99.90;;;;;;5053023;28;20041;-84
2022/03/27 03:31:44;;;;;;;18.83;7.63;;;6.80;99.90;;;;;;5055927;28;20052;-83
2022/03/27 03:34:09;;;;;;;15.77;8.02;;;6.80;99.90;;;;;;5036454;28;20045;-84
2022/03/27 03:36:35;;;;;;;19.38;8.55;;;6.80;99.90;;;;;;5035476;28;20030;-85
2022/03/27 03:39:01;;;;;;;18.55;7.72;;;6.80;99.90;;;;;;5017825;28;20121;-84
2022/03/27 03:41:26;;;;;;;16.15;8.50;;;6.90;99.90;;;;;;5053792;28;20041;-84
2022/03/27 03:43:52;;;;;;;21.98;8.43;;;6.90;99.90;;;;;;5054165;28;20040;-85
2022/03/27 03:46:17;;;;;;;19.75;9.20;;;6.90;99.90;;;;;;5052838;28;20041;-84
2022/03/27 03:48:44;;;;;;;19.95;8.85;;;6.90;99.90;;;;;;5054943;28;20037;-85
2022/03/27 03:51:11;;;;;;;20.60;8.32;;;6.90;99.90;;;;;;5051671;28;20116;-84
2022/03/27 03:53:36;;;;;;;17.77;7.65;;;6.90;99.90;;;;;;5049782;28;20111;-84
2022/03/27 03:56:02;;;;;;;18.50;9.07;;;7.00;99.90;;;;;;5045885;28;20475;-84
2022/03/27 03:58:27;;;;;;;25.85;9.32;;;7.00;99.90;;;;;;5033772;28;20388;-85
2022/03/27 04:00:53;;;;;;;21.45;9.25;;;7.00;99.90;;;;;;5049049;28;20087;-85
2022/03/27 04:03:18;;;;;;;19.35;9.60;;;7.00;99.90;;;;;;5054621;28;20041;-84
2022/03/27 04:05:44;;;;;;;22.15;9.55;;;7.00;99.90;;;;;;5054937;28;20090;-84
2022/03/27 04:08:09;;;;;;;25.70;9.95;;;6.80;99.90;;;;;;5036142;28;20051;-86
2022/03/27 04:10:38;;;;;;;27.17;10.02;;;6.80;99.90;;;;;;5044732;28;20049;-84
2022/03/27 04:13:04;;;;;;;19.30;9.98;;;6.80;99.90;;;;;;5044543;28;20490;-84
2022/03/27 04:15:29;;;;;;;25.17;10.73;;;6.90;99.90;;;;;;5033942;28;20125;-84
2022/03/27 04:17:55;;;;;;;27.10;10.40;;;6.90;99.90;;;;;;5047001;28;20091;-84
2022/03/27 04:20:21;;;;;;;27.60;11.10;;;6.80;99.90;;;;;;5055249;28;20048;-84
2022/03/27 04:22:46;;;;;;;23.45;8.90;;;6.80;99.90;;;;;;5026739;28;20071;-84
2022/03/27 04:25:13;;;;;;;27.90;9.38;;;6.80;99.90;;;;;;5035245;28;20069;-83
2022/03/27 04:27:39;;;;;;;20.50;10.40;;;6.80;99.90;;;;;;5033188;28;20466;-85
2022/03/27 04:30:10;;;;;;;31.33;11.05;;;6.80;99.90;;;;;;5033288;28;20119;-84
2022/03/27 04:32:36;;;;;;;29.35;11.63;;;6.80;99.90;;;;;;5032971;28;20049;-84
2022/03/27 04:35:02;;;;;;;28.23;11.25;;;6.80;99.90;;;;;;5051676;28;20041;-85
2022/03/27 04:37:28;;;;;;;27.38;11.13;;;6.80;99.90;;;;;;5061977;22;20064;-83
2022/03/27 04:40:01;;;;;;;42.40;11.93;;;6.80;99.90;;;;;;5056729;28;20079;-82
2022/03/27 04:42:27;;;;;;;33.15;11.45;;;6.70;99.90;;;;;;5052186;28;20087;-81
2022/03/27 04:44:52;;;;;;;33.13;12.70;;;6.60;99.90;;;;;;5085419;28;20033;-83
2022/03/27 04:47:18;;;;;;;29.30;11.30;;;6.60;99.90;;;;;;5068797;28;20033;-83
2022/03/27 04:49:43;;;;;;;57.75;11.10;;;6.60;99.90;;;;;;5051185;28;20037;-82
2022/03/27 04:52:09;;;;;;;40.30;11.48;;;6.60;99.90;;;;;;5036023;28;20041;-82
2022/03/27 04:54:34;;;;;;;35.75;11.52;;;6.60;99.90;;;;;;5035329;28;20131;-82
2022/03/27 04:57:00;;;;;;;28.90;10.75;;;6.50;99.90;;;;;;5051191;28;20049;-83
2022/03/27 04:59:26;;;;;;;27.88;11.50;;;6.50;99.90;;;;;;5035153;28;20124;-82
2022/03/27 05:01:51;;;;;;;34.50;11.88;;;6.50;99.90;;;;;;5052218;28;20045;-83
2022/03/27 05:04:17;;;;;;;26.80;11.38;;;6.50;99.90;;;;;;5054369;28;20041;-83
2022/03/27 05:06:43;;;;;;;35.10;11.32;;;6.50;99.90;;;;;;5055090;28;20128;-82
2022/03/27 05:09:09;;;;;;;28.50;11.13;;;6.50;99.90;;;;;;5039158;28;20446;-82
2022/03/27 05:11:34;;;;;;;32.85;10.68;;;6.50;99.90;;;;;;5055501;28;20037;-82
2022/03/27 05:14:00;;;;;;;45.65;9.93;;;6.50;99.90;;;;;;5054616;28;20048;-82
2022/03/27 05:16:25;;;;;;;41.67;10.93;;;6.40;99.90;;;;;;5038417;28;20462;-82
2022/03/27 05:18:51;;;;;;;33.47;10.10;;;6.40;99.90;;;;;;5054562;28;20086;-81
2022/03/27 05:21:16;;;;;;;42.03;12.00;;;6.40;99.90;;;;;;5056195;28;20053;-82
2022/03/27 05:23:42;;;;;;;41.92;11.27;;;6.40;99.90;;;;;;5055768;28;20079;-83
2022/03/27 05:26:08;;;;;;;33.17;11.07;;;6.40;99.90;;;;;;5054855;28;20124;-83
2022/03/27 05:28:34;;;;;;;49.25;10.50;;;6.30;99.90;;;;;;5054340;28;20090;-82
2022/03/27 05:31:02;;;;;;;44.10;11.25;;;6.30;99.90;;;;;;5068882;28;20061;-82
2022/03/27 05:33:28;;;;;;;60.60;11.80;;;6.30;99.90;;;;;;5046037;28;20052;-81
2022/03/27 05:35:54;;;;;;;48.08;10.65;;;6.30;99.90;;;;;;5054142;28;20090;-82
2022/03/27 05:38:19;;;;;;;67.65;11.73;;;6.30;99.90;;;;;;5054038;28;20122;-82
2022/03/27 05:40:45;;;;;;;84.22;12.07;;;6.20;99.90;;;;;;5037387;28;20658;-81
2022/03/27 05:43:11;;;;;;;54.10;11.25;;;6.20;99.90;;;;;;5053887;28;20444;-81
2022/03/27 05:45:37;;;;;;;57.00;11.10;;;6.00;99.90;;;;;;5055911;28;20044;-81
2022/03/27 05:48:03;;;;;;;44.28;10.95;;;6.10;99.90;;;;;;5053140;28;20032;-82
2022/03/27 05:50:29;;;;;;;36.70;10.77;;;6.10;99.90;;;;;;5054181;28;20536;-82
2022/03/27 05:52:55;;;;;;;36.50;10.55;;;6.10;99.90;;;;;;5054039;28;20053;-83
2022/03/27 05:55:22;;;;;;;48.53;9.77;;;6.20;99.90;;;;;;5055524;28;20120;-83
2022/03/27 05:57:48;;;;;;;39.85;9.50;;;6.10;99.90;;;;;;5036396;28;20037;-84
2022/03/27 06:00:20;;;;;;;33.70;10.38;;;6.10;99.90;;;;;;5055688;28;20558;-82
2022/03/27 06:02:47;;;;;;;50.33;9.82;;;6.20;99.90;;;;;;5054842;28;20087;-81
2022/03/27 06:05:13;;;;;;;29.98;10.18;;;6.20;99.90;;;;;;5055632;28;20052;-82
2022/03/27 06:07:46;;;;;;;34.50;10.13;;;6.20;99.90;;;;;;5054070;28;20079;-82
2022/03/27 06:10:14;;;;;;;50.63;9.77;;;6.20;99.90;;;;;;5053554;28;20068;-82
2022/03/27 06:12:40;;;;;;;42.78;11.23;;;6.20;99.90;;;;;;5063670;28;20037;-82
2022/03/27 06:15:07;;;;;;;33.65;9.60;;;6.20;99.90;;;;;;5058603;28;20086;-83
2022/03/27 06:17:41;;;;;;;30.95;9.05;;;6.20;99.90;;;;;;5037191;28;20041;-83
2022/03/27 06:20:08;;;;;;;49.60;10.02;;;6.10;99.90;;;;;;5040689;28;20485;-83
2022/03/27 06:22:34;;;;;;;46.17;9.90;;;6.00;99.90;;;;;;5037271;28;20041;-82
2022/03/27 06:25:00;;;;;;;40.05;9.65;;;6.00;99.90;;;;;;5042111;28;20082;-81
2022/03/27 06:27:25;;;;;;;40.38;10.43;;;6.00;99.90;;;;;;5053853;28;20043;-82
2022/03/27 06:29:51;;;;;;;31.83;10.35;;;6.00;99.90;;;;;;5050659;28;20127;-82
2022/03/27 06:32:16;;;;;;;38.80;11.10;;;6.10;99.90;;;;;;5050155;28;20364;-82
2022/03/27 06:34:42;;;;;;;30.38;10.25;;;6.20;99.90;;;;;;5053635;28;20378;-82
2022/03/27 06:37:08;;;;;;;25.55;9.98;;;6.30;99.90;;;;;;5054584;28;20072;-83
2022/03/27 06:39:33;;;;;;;29.23;10.32;;;6.50;99.90;;;;;;5053519;28;20532;-82
2022/03/27 06:41:59;;;;;;;31.23;10.25;;;6.60;99.90;;;;;;5053844;28;20053;-82
2022/03/27 06:44:25;;;;;;;28.08;9.88;;;6.80;99.90;;;;;;5070050;28;20045;-82
2022/03/27 06:46:50;;;;;;;25.77;8.85;;;6.70;99.90;;;;;;5086048;28;20045;-83
2022/03/27 06:49:16;;;;;;;23.08;9.25;;;6.90;99.90;;;;;;5032488;28;20037;-81
2022/03/27 06:51:41;;;;;;;23.42;8.45;;;7.00;99.90;;;;;;5065773;28;20048;-81
2022/03/27 06:54:07;;;;;;;22.52;8.57;;;7.00;99.90;;;;;;5083910;28;20040;-82
2022/03/27 06:56:32;;;;;;;22.75;8.38;;;7.10;99.90;;;;;;5054438;28;20040;-83
2022/03/27 06:58:58;;;;;;;21.65;7.70;;;7.10;99.90;;;;;;5053345;28;20033;-82
2022/03/27 07:04:09;;;;;;;24.80;8.55;;;7.20;99.90;;;;;;5053979;28;20083;-81
2022/03/27 07:06:35;;;;;;;20.98;7.93;;;7.30;99.90;;;;;;5052466;28;20478;-82
2022/03/27 07:09:01;;;;;;;30.65;8.95;;;7.40;99.90;;;;;;5052414;28;20043;-82
2022/03/27 07:11:27;;;;;;;28.25;7.43;;;7.40;99.90;;;;;;5052730;28;20041;-82
2022/03/27 07:13:53;;;;;;;29.23;7.57;;;7.20;99.90;;;;;;5052036;28;20041;-82
2022/03/27 07:16:18;;;;;;;33.95;8.10;;;7.20;99.90;;;;;;5053759;28;20044;-81
2022/03/27 07:18:49;;;;;;;31.77;9.18;;;7.40;99.90;;;;;;5052180;28;20051;-81
2022/03/27 07:21:17;;;;;;;33.78;7.75;;;7.50;99.90;;;;;;5051282;28;20053;-81
2022/03/27 07:23:44;;;;;;;32.47;7.28;;;7.50;99.90;;;;;;5064358;28;20039;-82
2022/03/27 07:26:10;;;;;;;34.10;6.97;;;7.60;99.90;;;;;;5072004;28;20125;-81
2022/03/27 07:28:36;;;;;;;29.80;7.85;;;7.60;99.90;;;;;;5072468;28;20443;-81
2022/03/27 07:31:02;;;;;;;37.42;8.00;;;7.60;99.90;;;;;;5073167;28;20076;-83
2022/03/27 07:33:28;;;;;;;37.33;9.18;;;7.80;99.90;;;;;;5071171;28;20434;-83
2022/03/27 07:35:55;;;;;;;34.10;7.88;;;7.90;99.90;;;;;;5070536;28;20052;-82
2022/03/27 07:38:23;;;;;;;31.30;6.43;;;7.90;99.90;;;;;;5094109;28;20049;-82
2022/03/27 07:40:53;;;;;;;39.38;8.52;;;8.00;99.90;;;;;;5065297;28;20048;-83
2022/03/27 07:43:19;;;;;;;34.30;7.05;;;8.10;99.90;;;;;;5052060;28;20041;-84
2022/03/27 07:45:47;;;;;;;45.03;9.05;;;8.20;99.90;;;;;;5051339;28;20158;-83
2022/03/27 07:48:13;;;;;;;39.08;8.25;;;8.10;99.90;;;;;;5072218;28;20041;-82
2022/03/27 07:50:39;;;;;;;33.95;7.10;;;8.00;99.90;;;;;;5031525;28;20051;-81
2022/03/27 07:53:05;;;;;;;30.25;7.35;;;8.20;99.90;;;;;;5075578;28;20091;-81
2022/03/27 07:55:31;;;;;;;38.45;9.30;;;8.20;99.90;;;;;;5047145;28;20077;-82
2022/03/27 07:57:58;;;;;;;39.67;8.75;;;8.30;99.90;;;;;;5039307;28;20130;-81
2022/03/27 08:00:24;;;;;;;45.83;8.93;;;8.30;99.90;;;;;;5048298;28;20401;-82
2022/03/27 08:02:51;;;;;;;34.72;7.65;;;8.40;99.90;;;;;;5049644;28;20553;-83
2022/03/27 08:05:16;;;;;;;32.42;7.60;;;8.80;99.90;;;;;;5033585;28;20079;-82
2022/03/27 08:07:42;;;;;;;35.88;7.15;;;8.90;99.90;;;;;;5075523;28;20040;-82
2022/03/27 08:10:08;;;;;;;31.83;8.18;;;9.20;99.90;;;;;;5060470;28;20128;-82
2022/03/27 08:12:35;;;;;;;34.72;7.40;;;9.20;99.90;;;;;;5046422;28;20662;-81
2022/03/27 08:15:01;;;;;;;35.88;7.65;;;9.10;99.90;;;;;;5029220;28;20042;-81
2022/03/27 08:17:27;;;;;;;36.70;7.65;;;9.00;99.90;;;;;;5049928;28;20055;-81
2022/03/27 08:19:53;;;;;;;38.33;8.07;;;8.50;99.90;;;;;;5042070;28;20045;-79
2022/03/27 08:22:21;;;;;;;32.55;7.30;;;8.50;99.90;;;;;;5030853;28;20131;-79
2022/03/27 08:24:47;;;;;;;37.35;9.02;;;8.70;99.90;;;;;;5056399;28;20410;-78
2022/03/27 08:27:14;;;;;;;32.72;7.90;;;8.40;99.90;;;;;;5070472;28;20029;-79
2022/03/27 08:29:43;;;;;;;37.15;8.38;;;8.30;99.90;;;;;;5039022;28;20120;-81
2022/03/27 08:32:12;;;;;;;32.92;8.10;;;8.40;99.90;;;;;;5046060;28;20049;-79
2022/03/27 08:34:41;;;;;;;31.83;8.02;;;8.50;99.90;;;;;;5049722;28;20068;-79
2022/03/27 08:37:08;;;;;;;29.13;7.03;;;8.60;99.90;;;;;;5038166;28;20679;-80
2022/03/27 08:39:34;;;;;;;39.83;7.60;;;8.90;99.90;;;;;;5038330;28;20049;-81
2022/03/27 08:42:00;;;;;;;30.13;7.75;;;8.70;99.90;;;;;;5067080;28;20045;-80
2022/03/27 08:44:27;;;;;;;26.65;6.50;;;8.90;99.90;;;;;;5036581;28;20048;-80
2022/03/27 08:46:55;;;;;;;29.98;7.75;;;9.10;99.90;;;;;;5048638;28;20037;-81
2022/03/27 08:49:29;;;;;;;33.08;7.45;;;9.40;99.90;;;;;;5045644;28;20032;-80
2022/03/27 08:52:01;;;;;;;29.73;7.85;;;9.60;99.90;;;;;;5081430;28;20103;-80
2022/03/27 08:54:40;;;;;;;31.13;7.20;;;9.40;99.90;;;;;;5044108;28;20038;-79
2022/03/27 08:57:30;;;;;;;33.28;6.93;;;9.60;99.90;;;;;;5049716;28;20719;-80
2022/03/27 08:59:57;;;;;;;34.45;7.18;;;9.90;99.90;;;;;;5051630;28;20049;-80
2022/03/27 09:02:24;;;;;;;25.83;7.47;;;9.90;99.90;;;;;;5054225;28;20036;-80
2022/03/27 09:04:53;;;;;;;26.00;6.35;;;9.80;99.90;;;;;;5082193;28;20049;-80
2022/03/27 09:07:28;;;;;;;32.08;7.90;;;10.00;99.90;;;;;;5050596;28;20033;-79
2022/03/27 09:09:58;;;;;;;29.60;8.57;;;10.10;99.90;;;;;;5052239;28;20037;-80
2022/03/27 09:12:24;;;;;;;31.00;8.13;;;10.30;99.90;;;;;;5044461;28;20053;-80
2022/03/27 09:14:53;;;;;;;35.55;8.27;;;10.10;99.90;;;;;;5043053;28;20045;-80
2022/03/27 09:17:18;;;;;;;30.77;7.88;;;10.10;99.90;;;;;;5039484;28;20398;-80
2022/03/27 09:19:49;;;;;;;30.88;8.45;;;10.20;99.90;;;;;;5039444;28;20060;-80
2022/03/27 09:22:27;;;;;;;34.55;8.90;;;10.30;99.90;;;;;;5046240;28;20064;-80
2022/03/27 09:24:58;;;;;;;35.58;8.15;;;10.20;99.90;;;;;;5045431;28;20057;-80
2022/03/27 09:27:30;;;;;;;30.43;7.53;;;10.20;99.90;;;;;;5045914;28;20036;-80
2022/03/27 09:30:14;;;;;;;29.52;8.05;;;10.20;99.90;;;;;;5053116;28;20572;-79
2022/03/27 09:32:42;;;;;;;25.23;7.47;;;10.20;99.90;;;;;;5053099;28;20080;-79
2022/03/27 09:35:16;;;;;;;31.48;7.20;;;10.50;99.90;;;;;;5053187;28;20025;-78
2022/03/27 09:37:46;;;;;;;34.42;8.63;;;10.70;99.90;;;;;;5051207;28;20055;-79
2022/03/27 09:40:14;;;;;;;35.78;8.48;;;10.80;99.90;;;;;;5040235;28;20056;-80
2022/03/27 09:42:40;;;;;;;24.70;7.28;;;10.90;99.90;;;;;;5072944;28;20051;-79
2022/03/27 09:45:32;;;;;;;26.83;7.72;;;10.80;99.90;;;;;;5033678;28;20479;-79
2022/03/27 09:48:08;;;;;;;29.30;6.63;;;10.80;99.90;;;;;;5051655;28;20045;-79
2022/03/27 09:50:36;;;;;;;35.78;7.65;;;11.00;99.90;;;;;;5051564;28;20115;-80
2022/03/27 09:53:19;;;;;;;31.85;8.68;;;11.20;99.90;;;;;;5043021;28;20033;-80
2022/03/27 09:55:46;;;;;;;31.30;8.75;;;11.00;99.90;;;;;;5046141;28;20128;-79
2022/03/27 09:58:12;;;;;;;29.83;7.47;;;10.80;99.90;;;;;;5064503;28;20040;-78
2022/03/27 10:00:38;;;;;;;29.35;7.22;;;10.90;99.90;;;;;;5044104;28;20049;-79
2022/03/27 10:03:11;;;;;;;26.92;7.88;;;11.20;99.90;;;;;;5079185;28;20028;-79
2022/03/27 10:05:37;;;;;;;30.45;7.28;;;11.20;99.90;;;;;;5053590;28;20033;-78
2022/03/27 10:08:03;;;;;;;26.63;7.03;;;11.40;99.90;;;;;;5054104;28;20036;-79
2022/03/27 10:10:29;;;;;;;26.63;6.75;;;11.50;99.90;;;;;;5051560;28;20075;-79
2022/03/27 10:12:57;;;;;;;26.77;6.22;;;11.60;99.90;;;;;;5049304;28;20534;-82
2022/03/27 10:15:28;;;;;;;29.85;6.50;;;11.70;99.90;;;;;;5038802;28;20136;-81
2022/03/27 10:17:56;;;;;;;23.05;5.80;;;11.90;99.90;;;;;;5041584;28;20487;-80
2022/03/27 10:20:47;;;;;;;25.65;6.53;;;12.00;99.90;;;;;;5042814;28;20486;-82
2022/03/27 10:23:24;;;;;;;25.30;6.95;;;12.20;99.90;;;;;;5045510;28;20094;-81
2022/03/27 10:25:53;;;;;;;21.48;6.10;;;12.30;99.90;;;;;;5047825;28;20450;-82
2022/03/27 10:28:20;;;;;;;23.80;6.20;;;12.30;99.90;;;;;;5050634;28;20517;-84
2022/03/27 10:30:49;;;;;;;21.48;6.13;;;12.40;99.90;;;;;;5048364;28;20140;-83
2022/03/27 10:33:15;;;;;;;23.67;5.93;;;12.00;99.90;;;;;;5048337;28;20048;-82
2022/03/27 10:36:10;;;;;;;27.85;6.63;;;12.20;99.90;;;;;;5053011;28;20057;-81
2022/03/27 10:39:04;;;;;;;24.48;5.93;;;12.40;99.90;;;;;;5050247;28;20045;-81
2022/03/27 10:41:42;;;;;;;28.65;7.63;;;12.60;99.90;;;;;;5040705;28;20053;-83
2022/03/27 10:44:28;;;;;;;23.77;6.35;;;12.50;99.90;;;;;;5079240;28;20042;-83
2022/03/27 10:47:25;;;;;;;24.48;6.05;;;12.50;99.90;;;;;;5051679;28;20355;-83
2022/03/27 10:50:06;;;;;;;24.48;5.78;;;12.60;99.90;;;;;;5077354;28;20048;-83
2022/03/27 10:52:32;;;;;;;17.27;5.47;;;12.40;99.90;;;;;;5033806;28;20116;-81
2022/03/27 10:55:07;;;;;;;26.70;6.07;;;12.30;99.90;;;;;;5076400;28;20041;-81
2022/03/27 10:57:34;;;;;;;23.58;6.40;;;12.10;99.90;;;;;;5031991;28;20041;-81
2022/03/27 11:00:01;;;;;;;25.73;6.53;;;12.10;99.90;;;;;;5039844;28;20045;-81
2022/03/27 11:02:49;;;;;;;24.30;6.20;;;12.30;99.90;;;;;;5069264;28;20144;-80
2022/03/27 11:05:31;;;;;;;22.38;6.07;;;12.40;99.90;;;;;;5041818;28;20064;-81
2022/03/27 11:08:18;;;;;;;21.92;6.00;;;12.70;99.90;;;;;;5069108;28;20586;-81
2022/03/27 11:10:54;;;;;;;26.08;5.20;;;12.70;99.30;;;;;;5046426;28;20187;-80
2022/03/27 11:13:29;;;;;;;15.82;4.88;;;13.00;98.80;;;;;;5077785;28;20044;-81
2022/03/27 11:16:11;;;;;;;20.02;4.97;;;13.20;99.90;;;;;;5082389;28;20371;-80
2022/03/27 11:18:41;;;;;;;;;;;13.30;95.70;;;;;;5050237;28;20135;-80
2022/03/27 11:21:09;;;;;;;26.52;6.00;;;13.30;94.80;;;;;;5047052;28;19927;-77
2022/03/27 11:23:37;;;;;;;17.75;5.25;;;13.40;98.40;;;;;;5063681;28;20037;-78
2022/03/27 11:26:05;;;;;;;21.05;4.93;;;13.10;95.30;;;;;;5043555;28;20095;-75
2022/03/27 11:28:46;;;;;;;21.90;5.07;;;13.50;98.40;;;;;;5043169;28;20045;-75
2022/03/27 11:31:11;;;;;;;14.65;3.90;;;13.80;97.80;;;;;;5048488;28;20040;-75
2022/03/27 11:33:39;;;;;;;16.25;4.65;;;14.00;97.70;;;;;;5050163;28;20136;-75
2022/03/27 11:36:08;;;;;;;21.15;5.22;;;14.10;98.00;;;;;;5049368;28;20095;-75
2022/03/27 11:38:52;;;;;;;16.88;4.70;;;13.70;93.10;;;;;;5083656;28;20452;-76
2022/03/27 11:41:30;;;;;;;17.88;4.43;;;13.60;93.30;;;;;;5083066;28;20124;-75
2022/03/27 11:44:19;;;;;;;18.27;4.72;;;13.50;94.00;;;;;;5036351;28;20041;-76
2022/03/27 11:46:49;;;;;;;21.55;5.45;;;13.50;90.50;;;;;;5033423;28;20553;-76
2022/03/27 11:49:16;;;;;;;17.35;4.40;;;13.60;92.40;;;;;;5031669;28;20049;-75
2022/03/27 11:51:42;;;;;;;17.55;4.20;;;13.80;96.40;;;;;;5049638;28;20048;-75
2022/03/27 11:54:18;;;;;;;12.70;4.07;;;13.90;88.50;;;;;;5082943;28;20419;-75
2022/03/27 11:56:56;;;;;;;16.13;3.92;;;13.80;78.80;;;;;;5083018;28;20115;-75
2022/03/27 11:59:26;;;;;;;16.55;4.28;;;14.00;81.00;;;;;;5036593;28;20056;-75
2022/03/27 12:01:53;;;;;;;19.35;4.55;;;14.10;85.90;;;;;;5027638;28;20033;-75
2022/03/27 12:04:19;;;;;;;22.85;5.68;;;13.90;90.40;;;;;;5083473;28;20036;-75
2022/03/27 12:06:45;;;;;;;21.13;4.53;;;13.90;88.90;;;;;;5048043;28;20587;-76
2022/03/27 12:09:32;;;;;;;18.88;4.35;;;14.10;90.70;;;;;;5041869;28;20071;-76
2022/03/27 12:12:11;;;;;;;20.88;4.35;;;14.00;87.40;;;;;;5047437;28;20068;-76
2022/03/27 12:14:57;;;;;;;17.83;3.75;;;14.10;85.40;;;;;;5053442;28;20475;-76
2022/03/27 12:17:24;;;;;;;18.08;4.45;;;14.30;92.50;;;;;;5041633;28;20123;-76
2022/03/27 12:20:16;;;;;;;13.18;3.60;;;14.50;89.90;;;;;;5045378;28;20059;-75
2022/03/27 12:22:51;;;;;;;14.45;3.50;;;14.40;67.40;;;;;;5037221;28;20060;-76
2022/03/27 12:25:22;;;;;;;12.65;3.63;;;14.40;68.50;;;;;;5040421;28;20068;-75
2022/03/27 12:30:52;;;;;;;12.23;3.75;;;14.40;71.80;;;;;;5040572;28;20053;-76
2022/03/27 12:33:20;;;;;;;14.48;4.10;;;14.20;66.10;;;;;;5052745;28;20041;-75
2022/03/27 12:35:49;;;;;;;11.45;3.15;;;14.40;75.30;;;;;;5086334;28;20467;-75
2022/03/27 12:38:29;;;;;;;11.85;2.90;;;14.40;60.10;;;;;;5053203;28;20052;-75
2022/03/27 12:40:55;;;;;;;12.32;2.95;;;14.40;60.60;;;;;;5083886;28;20048;-75
2022/03/27 12:43:21;;;;;;;16.60;3.45;;;14.40;59.40;;;;;;5042278;28;20040;-76
2022/03/27 12:45:47;;;;;;;11.63;2.80;;;14.50;59.40;;;;;;5052855;28;20159;-75
2022/03/27 12:48:21;;;;;;;13.68;3.38;;;14.70;72.60;;;;;;5052928;28;20494;-75
2022/03/27 12:50:55;;;;;;;10.90;3.08;;;14.70;62.70;;;;;;5049256;28;20087;-75
2022/03/27 12:53:21;;;;;;;13.05;3.70;;;14.70;58.60;;;;;;5033791;28;20037;-75
2022/03/27 12:55:53;;;;;;;12.73;3.13;;;14.50;57.50;;;;;;5050439;28;20036;-75
2022/03/27 12:58:32;;;;;;;10.65;3.28;;;14.60;60.40;;;;;;5072885;28;20056;-75